Time;durP1;ratioP1;P1;durP2;ratioP2;P2;SDS_P1;SDS_P2;PMS_P1;PMS_P2;Temp;Humidity;BMP_temperature;BMP_pressure;BME280_temperature;BME280_humidity;BME280_pressure;Samples;Min_cycle;Max_cycle;Signal;HPM_P1;HPM_P2
2022/04/12 00:01:31;;;;;;;2.90;2.10;;;;;;;6.53;100.00;99947.41;4950069;28;20551;-58
2022/04/12 00:03:57;;;;;;;4.40;2.13;;;;;;;6.52;100.00;99942.28;4950924;28;20289;-57
2022/04/12 00:06:23;;;;;;;3.30;2.23;;;;;;;6.50;100.00;99944.88;4949618;28;20223;-57
2022/04/12 00:08:48;;;;;;;7.50;2.37;;;;;;;6.50;100.00;99932.00;4947960;28;20814;-56
2022/04/12 00:11:13;;;;;;;4.67;1.83;;;;;;;6.50;100.00;99937.16;4948170;28;20201;-57
2022/04/12 00:13:39;;;;;;;6.03;2.23;;;;;;;6.50;100.00;99938.84;4946020;28;20601;-57
2022/04/12 00:16:04;;;;;;;5.33;2.30;;;;;;;6.49;100.00;99934.56;4953096;28;20188;-57
2022/04/12 00:21:13;;;;;;;2.57;2.20;;;;;;;6.45;100.00;99938.84;4948522;28;20285;-57
2022/04/12 00:23:39;;;;;;;3.40;1.93;;;;;;;6.45;100.00;99926.00;4954263;28;22256;-57
2022/04/12 00:26:04;;;;;;;2.70;2.23;;;;;;;6.44;100.00;99929.41;4947615;28;20740;-57
2022/04/12 00:28:29;;;;;;;2.53;2.10;;;;;;;6.42;100.00;99923.41;4950059;28;20636;-57
2022/04/12 00:30:55;;;;;;;2.57;2.10;;;;;;;6.40;100.00;99928.56;4946458;28;20196;-58
2022/04/12 00:33:20;;;;;;;2.10;1.90;;;;;;;6.37;100.00;99925.09;4948753;28;20218;-58
2022/04/12 00:35:46;;;;;;;3.43;2.27;;;;;;;6.33;100.00;99921.69;4949778;28;20195;-57
2022/04/12 00:38:23;;;;;;;2.83;2.27;;;;;;;6.30;100.00;99916.53;4944330;28;20209;-58
2022/04/12 00:40:49;;;;;;;3.30;2.33;;;;;;;6.27;100.00;99926.81;4950093;28;20219;-58
2022/04/12 00:43:16;;;;;;;3.27;2.47;;;;;;;6.23;100.00;99932.78;4950942;28;20594;-58
2022/04/12 00:45:42;;;;;;;3.33;2.50;;;;;;;6.20;100.00;99919.94;4953441;28;20353;-58
2022/04/12 00:48:07;;;;;;;2.57;2.37;;;;;;;6.17;100.00;99930.19;4950134;28;20731;-57
2022/04/12 00:50:33;;;;;;;2.50;2.30;;;;;;;6.11;100.00;99923.31;4949358;28;20191;-58
2022/04/12 00:52:59;;;;;;;3.27;2.43;;;;;;;6.08;100.00;99934.47;4951048;28;20642;-57
2022/04/12 00:55:25;;;;;;;2.40;2.20;;;;;;;6.03;100.00;99931.00;4947930;28;20569;-57
2022/04/12 00:57:51;;;;;;;2.70;2.23;;;;;;;6.00;100.00;99935.28;4948958;28;20196;-57
2022/04/12 01:00:17;;;;;;;3.40;2.50;;;;;;;5.94;100.00;99929.22;4948339;28;20190;-57
2022/04/12 01:02:43;;;;;;;2.70;2.10;;;;;;;5.90;100.00;99929.22;4946731;28;20233;-57
2022/04/12 01:05:09;;;;;;;2.30;2.10;;;;;;;5.87;100.00;99926.63;4948652;28;20818;-57
2022/04/12 01:07:36;;;;;;;2.50;2.30;;;;;;;5.83;100.00;99936.03;4948694;28;20198;-57
2022/04/12 01:10:03;;;;;;;2.70;2.50;;;;;;;5.82;100.00;99931.75;4949815;28;20198;-58
2022/04/12 01:12:30;;;;;;;3.90;2.57;;;;;;;5.80;100.00;99931.75;4947778;29;20214;-57
2022/04/12 01:15:12;;;;;;;3.17;2.87;;;;;;;5.81;100.00;99935.16;4950941;28;20226;-57
2022/04/12 01:17:38;;;;;;;3.07;2.77;;;;;;;5.80;100.00;99929.19;4950630;28;20196;-57
2022/04/12 01:20:06;;;;;;;2.83;2.43;;;;;;;5.83;100.00;99927.44;4954159;28;20258;-57
2022/04/12 01:22:34;;;;;;;3.20;2.70;;;;;;;5.84;100.00;99931.72;4946890;29;20212;-57
2022/04/12 01:25:00;;;;;;;3.60;2.33;;;;;;;5.85;100.00;99923.19;4955266;28;20222;-57
2022/04/12 01:27:27;;;;;;;3.73;2.50;;;;;;;5.88;100.00;99918.94;4951252;28;20222;-57
2022/04/12 01:29:53;;;;;;;4.50;2.90;;;;;;;5.89;100.00;99918.09;4953209;28;20201;-57
2022/04/12 01:32:18;;;;;;;3.53;2.80;;;;;;;5.90;100.00;99918.94;4949536;28;20202;-57
2022/04/12 01:34:44;;;;;;;3.57;2.60;;;;;;;5.90;100.00;99908.66;4953656;28;20190;-57
2022/04/12 01:37:09;;;;;;;3.10;2.37;;;;;;;5.89;100.00;99910.38;4948769;28;20196;-57
2022/04/12 01:39:34;;;;;;;3.00;2.50;;;;;;;5.87;100.00;99911.22;4951462;28;20206;-57
2022/04/12 01:42:00;;;;;;;4.57;2.70;;;;;;;5.82;100.00;99910.34;4954183;28;20754;-57
2022/04/12 01:44:26;;;;;;;2.90;2.63;;;;;;;5.74;100.00;99906.03;4949218;28;20246;-58
2022/04/12 01:46:52;;;;;;;3.13;2.83;;;;;;;5.70;100.00;99919.69;4949903;28;20274;-58
2022/04/12 01:49:17;;;;;;;3.47;2.50;;;;;;;5.64;100.00;99910.25;4954526;28;20283;-57
2022/04/12 01:51:43;;;;;;;3.80;2.80;;;;;;;5.60;100.00;99912.81;4955522;28;20234;-57
2022/04/12 01:54:08;;;;;;;5.27;3.37;;;;;;;5.53;100.00;99911.03;4955840;28;20638;-56
2022/04/12 01:56:34;;;;;;;4.83;3.17;;;;;;;5.46;100.00;99907.59;4951777;28;20545;-58
2022/04/12 01:59:01;;;;;;;3.60;3.30;;;;;;;5.39;100.00;99908.41;4952322;28;20677;-57
2022/04/12 02:01:26;;;;;;;3.30;2.90;;;;;;;5.35;100.00;99902.41;4948379;28;20218;-57
2022/04/12 02:03:52;;;;;;;2.63;2.43;;;;;;;5.37;100.00;99910.09;4950297;28;21215;-58
2022/04/12 02:06:18;;;;;;;3.03;2.73;;;;;;;5.37;100.00;99902.41;4948594;28;20207;-58
2022/04/12 02:08:44;;;;;;;2.40;2.23;;;;;;;5.36;100.00;99896.44;4951731;28;20785;-58
2022/04/12 02:11:10;;;;;;;3.50;2.60;;;;;;;5.38;100.00;99906.69;4950601;28;20198;-58
2022/04/12 02:13:35;;;;;;;2.77;2.57;;;;;;;5.36;100.00;99905.81;4952594;28;20301;-58
2022/04/12 02:16:00;;;;;;;2.90;2.70;;;;;;;5.34;100.00;99898.13;4953363;28;20202;-58
2022/04/12 02:18:26;;;;;;;2.77;2.43;;;;;;;5.33;100.00;99901.53;4950541;28;20198;-58
2022/04/12 02:20:51;;;;;;;4.17;2.70;;;;;;;5.30;100.00;99892.09;4952008;28;20218;-57
2022/04/12 02:23:16;;;;;;;2.60;2.40;;;;;;;5.28;100.00;99895.50;4948292;28;20259;-57
2022/04/12 02:25:42;;;;;;;2.67;2.47;;;;;;;5.24;100.00;99881.81;4953504;28;20205;-58
2022/04/12 02:28:07;;;;;;;2.70;2.50;;;;;;;5.24;100.00;99886.06;4944761;28;20210;-57
2022/04/12 02:30:32;;;;;;;3.23;2.47;;;;;;;5.20;100.00;99885.19;4944176;28;20204;-57
2022/04/12 02:32:59;;;;;;;3.40;2.50;;;;;;;5.19;100.00;99891.16;4948159;28;20222;-58
2022/04/12 02:35:25;;;;;;;2.53;2.33;;;;;;;5.16;100.00;99893.72;4947494;28;20219;-57
2022/04/12 02:37:51;;;;;;;3.90;2.73;;;;;;;5.13;100.00;99883.44;4953368;28;20205;-58
2022/04/12 02:40:17;;;;;;;3.37;3.03;;;;;;;5.12;100.00;99889.44;4947511;28;20195;-58
2022/04/12 02:42:43;;;;;;;3.93;2.87;;;;;;;5.09;100.00;99884.28;4948712;28;20276;-57
2022/04/12 02:45:08;;;;;;;3.23;2.93;;;;;;;5.07;100.00;99883.41;4949564;28;20301;-58
2022/04/12 02:47:34;;;;;;;3.10;2.80;;;;;;;5.03;100.00;99885.94;4946273;28;20261;-57
2022/04/12 02:49:59;;;;;;;3.40;3.07;;;;;;;4.99;100.00;99894.44;4951011;28;20202;-59
2022/04/12 02:52:24;;;;;;;4.07;3.20;;;;;;;4.98;100.00;99891.88;4950552;28;20215;-58
2022/04/12 02:54:50;;;;;;;4.67;3.17;;;;;;;4.96;100.00;99886.75;4951299;28;20246;-58
2022/04/12 02:57:15;;;;;;;3.57;3.27;;;;;;;4.97;100.00;99888.47;4950970;28;20267;-57
2022/04/12 02:59:41;;;;;;;3.80;3.47;;;;;;;4.95;100.00;99885.03;4952770;28;20881;-57
2022/04/12 03:02:06;;;;;;;3.53;3.00;;;;;;;4.94;100.00;99890.13;4951525;28;20232;-56
2022/04/12 03:04:32;;;;;;;3.17;2.87;;;;;;;4.92;100.00;99895.25;4949396;28;20201;-59
2022/04/12 03:06:57;;;;;;;3.37;3.07;;;;;;;4.89;100.00;99890.09;4950681;28;20209;-56
2022/04/12 03:09:22;;;;;;;3.80;3.50;;;;;;;4.85;100.00;99888.34;4954124;28;20269;-58
2022/04/12 03:11:48;;;;;;;4.53;3.40;;;;;;;4.81;100.00;99900.28;4951667;28;20211;-58
2022/04/12 03:14:13;;;;;;;3.53;3.17;;;;;;;4.77;100.00;99898.53;4952169;28;20653;-57
2022/04/12 03:16:39;;;;;;;3.77;3.47;;;;;;;4.74;100.00;99888.28;4942885;28;20199;-57
2022/04/12 03:19:04;;;;;;;4.63;3.50;;;;;;;4.72;100.00;99895.94;4956009;28;20190;-58
2022/04/12 03:21:29;;;;;;;3.87;3.07;;;;;;;4.72;100.00;99895.09;4947929;28;20217;-58
2022/04/12 03:23:55;;;;;;;4.10;3.00;;;;;;;4.70;100.00;99899.34;4952810;28;20550;-58
2022/04/12 03:26:20;;;;;;;3.70;3.40;;;;;;;4.70;100.00;99895.06;4948492;28;20274;-57
2022/04/12 03:28:45;;;;;;;4.90;3.13;;;;;;;4.70;100.00;99904.47;4945596;28;20561;-58
2022/04/12 03:31:11;;;;;;;4.03;3.07;;;;;;;4.68;100.00;99896.78;4951142;28;20203;-57
2022/04/12 03:33:36;;;;;;;3.40;3.10;;;;;;;4.67;100.00;99900.19;4943783;28;20221;-57
2022/04/12 03:36:01;;;;;;;4.23;3.23;;;;;;;4.66;100.00;99900.16;4949619;28;20282;-57
2022/04/12 03:38:27;;;;;;;3.53;2.87;;;;;;;4.65;100.00;99901.88;4945692;28;20723;-57
2022/04/12 03:40:52;;;;;;;3.60;3.30;;;;;;;4.66;100.00;99910.41;4950724;28;20217;-58
2022/04/12 03:43:18;;;;;;;3.40;3.10;;;;;;;4.64;100.00;99909.53;4945555;28;20745;-57
2022/04/12 03:45:43;;;;;;;3.50;3.20;;;;;;;4.63;100.00;99905.25;4944107;28;20187;-58
2022/04/12 03:48:08;;;;;;;3.83;3.33;;;;;;;4.62;100.00;99911.22;4946750;28;20668;-57
2022/04/12 03:50:37;;;;;;;3.23;3.00;;;;;;;4.60;100.00;99903.53;4943450;28;20618;-58
2022/04/12 03:53:02;;;;;;;3.20;2.90;;;;;;;4.56;100.00;99900.09;4946537;29;20242;-57
2022/04/12 03:55:31;;;;;;;3.53;3.23;;;;;;;4.55;100.00;99902.63;4945363;28;20218;-58
2022/04/12 03:58:02;;;;;;;3.30;3.00;;;;;;;4.54;100.00;99906.03;4944789;28;20195;-57
2022/04/12 04:00:28;;;;;;;3.20;3.00;;;;;;;4.50;100.00;99892.34;4945016;28;20198;-58
2022/04/12 04:02:55;;;;;;;3.53;3.17;;;;;;;4.49;100.00;99903.41;4948466;28;20309;-58
2022/04/12 04:05:21;;;;;;;3.47;3.17;;;;;;;4.47;100.00;99902.53;4945368;28;20206;-57
2022/04/12 04:07:46;;;;;;;3.40;3.10;;;;;;;4.46;100.00;99890.59;4943266;28;20222;-57
2022/04/12 04:10:12;;;;;;;3.90;3.40;;;;;;;4.48;100.00;99895.72;4946832;28;20184;-57
2022/04/12 04:12:37;;;;;;;3.27;2.97;;;;;;;4.48;100.00;99898.28;4946638;28;20202;-56
2022/04/12 04:15:05;;;;;;;3.50;3.20;;;;;;;4.47;100.00;99899.97;4945108;28;21164;-57
2022/04/12 04:17:31;;;;;;;5.43;3.57;;;;;;;4.48;100.00;99904.25;4945317;28;20190;-57
2022/04/12 04:19:56;;;;;;;3.50;3.20;;;;;;;4.48;100.00;99896.56;4946830;28;20667;-57
2022/04/12 04:22:22;;;;;;;3.50;3.20;;;;;;;4.47;100.00;99910.22;4941665;28;20628;-58
2022/04/12 04:24:47;;;;;;;3.50;3.20;;;;;;;4.47;100.00;99910.22;4950001;28;20282;-57
2022/04/12 04:27:13;;;;;;;3.33;3.03;;;;;;;4.44;100.00;99907.66;4953475;28;20195;-57
2022/04/12 04:29:38;;;;;;;4.70;3.70;;;;;;;4.42;100.00;99917.88;4942710;28;20198;-57
2022/04/12 04:32:04;;;;;;;3.83;3.53;;;;;;;4.40;100.00;99908.47;4942052;28;20233;-58
2022/04/12 04:34:29;;;;;;;4.40;4.00;;;;;;;4.37;100.00;99911.88;4945005;28;20911;-57
2022/04/12 04:36:55;;;;;;;4.20;3.83;;;;;;;4.34;100.00;99908.41;4938093;28;20190;-58
2022/04/12 04:39:21;;;;;;;4.00;3.53;;;;;;;4.30;100.00;99899.81;4943994;28;20194;-57
2022/04/12 04:41:46;;;;;;;5.63;4.00;;;;;;;4.32;100.00;99899.81;4951706;28;20222;-56
2022/04/12 04:44:11;;;;;;;4.50;4.10;;;;;;;4.34;100.00;99913.53;4951226;28;20257;-57
2022/04/12 04:46:37;;;;;;;4.93;3.93;;;;;;;4.37;100.00;99918.69;4944028;28;20586;-56
2022/04/12 04:49:02;;;;;;;4.10;3.70;;;;;;;4.42;100.00;99912.75;4944135;28;20190;-57
2022/04/12 04:51:28;;;;;;;4.53;3.50;;;;;;;4.47;100.00;99912.78;4945771;28;20187;-57
2022/04/12 04:53:58;;;;;;;4.47;3.47;;;;;;;4.55;100.00;99910.31;4951163;28;20206;-58
2022/04/12 04:56:27;;;;;;;4.00;3.60;;;;;;;4.64;100.00;99910.41;4953322;28;20740;-57
2022/04/12 04:58:53;;;;;;;4.53;3.73;;;;;;;4.71;100.00;99903.63;4952796;28;20194;-57
2022/04/12 05:01:22;;;;;;;4.90;4.10;;;;;;;4.78;100.00;99899.41;4956850;28;20233;-57
2022/04/12 05:03:47;;;;;;;5.07;3.87;;;;;;;4.84;100.00;99900.31;4952935;28;20198;-57
2022/04/12 05:06:16;;;;;;;6.90;4.03;;;;;;;4.92;100.00;99907.22;4955269;28;20256;-57
2022/04/12 05:08:41;;;;;;;5.47;3.93;;;;;;;5.00;100.00;99914.13;4953426;29;20189;-57
2022/04/12 05:11:06;;;;;;;5.30;4.13;;;;;;;5.10;100.00;99919.34;4955081;29;20183;-57
2022/04/12 05:13:32;;;;;;;4.80;4.20;;;;;;;5.21;100.00;99919.41;4957244;28;20256;-57
2022/04/12 05:15:57;;;;;;;4.30;3.90;;;;;;;5.35;100.00;99917.81;4952162;28;20260;-58
2022/04/12 05:18:22;;;;;;;4.07;3.67;;;;;;;5.49;100.00;99913.63;4949022;28;20535;-57
2022/04/12 05:20:49;;;;;;;4.70;3.70;;;;;;;5.62;100.00;99924.78;4946058;28;20564;-57
2022/04/12 05:23:15;;;;;;;4.27;3.50;;;;;;;5.70;100.00;99923.97;4946557;28;20967;-58
2022/04/12 05:25:40;;;;;;;3.70;3.40;;;;;;;5.79;100.00;99924.00;4955648;28;20218;-56
2022/04/12 05:28:06;;;;;;;3.50;3.20;;;;;;;5.95;100.00;99922.38;4958795;28;20594;-57
2022/04/12 05:30:31;;;;;;;3.90;3.17;;;;;;;6.12;100.00;99922.47;4957352;28;20186;-57
2022/04/12 05:32:57;;;;;;;4.37;3.67;;;;;;;6.34;100.00;99930.25;4955036;28;20216;-58
2022/04/12 05:35:22;;;;;;;4.10;3.70;;;;;;;6.62;100.00;99930.31;4952340;28;20198;-56
2022/04/12 05:37:52;;;;;;;6.13;3.40;;;;;;;6.86;100.00;99929.47;4949249;28;20311;-57
2022/04/12 05:40:18;;;;;;;4.90;3.40;;;;;;;7.07;100.00;99923.47;4947631;28;20649;-56
2022/04/12 05:42:44;;;;;;;5.27;3.50;;;;;;;7.38;100.00;99926.03;4947145;28;20230;-57
2022/04/12 05:45:10;;;;;;;7.37;3.70;;;;;;;7.70;100.00;99932.81;4946971;28;20190;-57
2022/04/12 05:47:55;;;;;;;3.93;3.53;;;;;;;7.91;100.00;99931.00;4953056;28;20192;-57
2022/04/12 05:50:23;;;;;;;5.70;3.47;;;;;;;8.03;100.00;99928.38;4951405;28;20662;-57
2022/04/12 05:52:49;;;;;;;4.57;3.37;;;;;;;8.37;100.00;99932.53;4951637;28;20268;-56
2022/04/12 05:55:17;;;;;;;5.37;3.43;;;;;;;8.71;100.00;99932.31;4947888;28;20824;-58
2022/04/12 05:57:49;;;;;;;4.67;2.90;;;;;;;9.06;100.00;99926.03;4951491;28;20196;-57
2022/04/12 06:00:15;;;;;;;5.67;3.40;;;;;;;9.37;100.00;99922.34;4953607;28;20202;-57
2022/04/12 06:02:41;;;;;;;15.07;10.43;;;;;;;9.71;99.50;99925.41;4949628;28;20596;-57
2022/04/12 06:05:06;;;;;;;6.77;4.80;;;;;;;10.18;97.99;99915.34;4954257;28;20200;-58
2022/04/12 06:07:34;;;;;;;5.03;4.47;;;;;;;10.62;96.64;99917.34;4954351;28;20600;-59
2022/04/12 06:10:00;;;;;;;4.63;4.13;;;;;;;10.90;95.27;99919.50;4950709;28;20666;-58
2022/04/12 06:12:26;;;;;;;4.63;3.70;;;;;;;11.15;94.25;99925.13;4960013;28;20210;-58
2022/04/12 06:14:51;;;;;;;5.90;4.03;;;;;;;11.56;92.46;99925.28;4955089;28;20190;-58
2022/04/12 06:17:17;;;;;;;4.40;3.83;;;;;;;12.08;90.39;99927.75;4950826;28;20218;-57
2022/04/12 06:19:42;;;;;;;4.73;4.33;;;;;;;12.60;88.05;99926.59;4955471;28;20195;-58
2022/04/12 06:22:07;;;;;;;5.33;4.43;;;;;;;13.02;86.43;99929.94;4956865;28;20234;-58
2022/04/12 06:24:33;;;;;;;5.53;5.03;;;;;;;13.37;85.08;99923.88;4949563;28;20248;-58
2022/04/12 06:26:58;;;;;;;5.50;5.00;;;;;;;13.60;83.02;99912.00;4949321;28;20647;-58
2022/04/12 06:29:23;;;;;;;4.80;4.27;;;;;;;13.72;82.04;99918.63;4952033;28;20277;-57
2022/04/12 06:31:49;;;;;;;4.90;4.10;;;;;;;13.92;82.27;99920.66;4940271;28;20305;-57
2022/04/12 06:34:14;;;;;;;5.07;4.63;;;;;;;14.07;81.31;99924.56;4951035;28;20202;-56
2022/04/12 06:36:39;;;;;;;5.57;5.07;;;;;;;14.17;80.77;99918.19;4949508;28;20235;-59
2022/04/12 06:39:05;;;;;;;5.73;4.93;;;;;;;14.32;80.18;99924.69;4946961;28;20210;-57
2022/04/12 06:41:30;;;;;;;5.93;5.20;;;;;;;14.32;79.29;99919.47;4948953;28;20238;-56
2022/04/12 06:43:55;;;;;;;6.37;5.87;;;;;;;14.23;79.32;99916.28;4949754;28;20203;-58
2022/04/12 06:46:21;;;;;;;5.63;5.13;;;;;;;14.13;79.68;99920.94;4940589;28;20203;-58
2022/04/12 06:48:46;;;;;;;6.53;5.93;;;;;;;14.06;79.25;99919.41;4940987;28;20191;-57
2022/04/12 06:51:12;;;;;;;6.33;5.73;;;;;;;13.90;79.61;99922.44;4943867;28;20239;-57
2022/04/12 06:53:37;;;;;;;6.70;6.10;;;;;;;13.77;79.72;99923.69;4945574;28;20220;-57
2022/04/12 06:56:02;;;;;;;8.53;6.40;;;;;;;13.62;79.81;99933.63;4941196;28;20197;-57
2022/04/12 06:58:28;;;;;;;6.60;5.90;;;;;;;13.58;80.07;99929.41;4942473;28;20192;-57
2022/04/12 07:00:53;;;;;;;6.77;5.73;;;;;;;13.62;79.99;99918.03;4939883;28;20234;-57
2022/04/12 07:03:18;;;;;;;7.27;5.67;;;;;;;13.84;79.48;99927.84;4949573;28;20248;-57
2022/04/12 07:05:47;;;;;;;10.00;5.10;;;;;;;14.13;78.55;99926.97;4952682;28;20264;-57
2022/04/12 07:08:12;;;;;;;8.00;4.70;;;;;;;14.36;77.16;99937.59;4945887;28;20658;-58
2022/04/12 07:10:38;;;;;;;5.53;4.43;;;;;;;14.53;76.08;99943.16;4947349;28;20200;-57
2022/04/12 07:13:03;;;;;;;6.90;4.97;;;;;;;14.67;76.01;99936.66;4945352;28;20207;-57
2022/04/12 07:15:29;;;;;;;7.67;4.50;;;;;;;14.77;75.68;99951.13;4943920;28;20536;-58
2022/04/12 07:17:54;;;;;;;11.00;5.17;;;;;;;14.80;75.08;99953.63;4950576;28;20198;-59
2022/04/12 07:20:20;;;;;;;6.00;4.80;;;;;;;14.84;75.60;99950.03;4941447;28;20194;-57
2022/04/12 07:22:45;;;;;;;5.73;4.60;;;;;;;14.89;75.93;99945.53;4936680;28;20260;-56
2022/04/12 07:25:11;;;;;;;5.17;4.67;;;;;;;14.83;76.01;99940.50;4948788;28;20285;-58
2022/04/12 07:27:37;;;;;;;4.50;4.10;;;;;;;14.80;76.76;99939.78;4946990;28;20193;-57
2022/04/12 07:30:07;;;;;;;5.73;4.23;;;;;;;14.86;77.23;99942.16;4942170;28;20651;-59
2022/04/12 07:32:33;;;;;;;4.77;4.37;;;;;;;14.94;77.79;99942.78;4942284;28;21239;-58
2022/04/12 07:34:58;;;;;;;5.07;4.60;;;;;;;14.90;77.61;99935.94;4939824;28;20266;-57
2022/04/12 07:37:24;;;;;;;4.73;4.20;;;;;;;14.81;77.70;99937.09;4937404;28;20277;-57
2022/04/12 07:39:50;;;;;;;4.20;3.80;;;;;;;14.74;78.17;99940.81;4943234;28;20202;-57
2022/04/12 07:42:16;;;;;;;4.50;4.00;;;;;;;14.61;78.29;99929.91;4940181;28;20710;-58
2022/04/12 07:44:42;;;;;;;5.97;4.20;;;;;;;14.42;78.16;99934.81;4943458;28;20215;-57
2022/04/12 07:47:08;;;;;;;4.37;3.97;;;;;;;14.30;78.61;99936.88;4946689;28;21454;-57
2022/04/12 07:49:33;;;;;;;4.20;3.70;;;;;;;14.32;78.85;99935.09;4953463;28;20714;-57
2022/04/12 07:51:59;;;;;;;4.03;3.67;;;;;;;14.24;77.75;99931.00;4943340;28;20304;-58
2022/04/12 07:54:24;;;;;;;3.77;3.50;;;;;;;14.25;77.69;99928.38;4943918;28;20198;-57
2022/04/12 07:56:49;;;;;;;4.23;3.50;;;;;;;14.26;77.96;99921.41;4939094;28;20221;-59
2022/04/12 07:59:15;;;;;;;4.00;3.53;;;;;;;14.15;75.96;99922.59;4950416;28;20283;-57
2022/04/12 08:01:40;;;;;;;4.33;3.47;;;;;;;13.96;77.04;99921.41;4946876;28;20210;-56
2022/04/12 08:04:05;;;;;;;3.87;3.50;;;;;;;13.89;77.35;99925.94;4948716;28;20311;-56
2022/04/12 08:06:31;;;;;;;4.17;3.27;;;;;;;13.96;77.10;99930.09;4946202;28;20200;-57
2022/04/12 08:08:56;;;;;;;3.20;2.90;;;;;;;14.03;77.20;99920.34;4941572;28;20205;-58
2022/04/12 08:11:22;;;;;;;3.70;3.30;;;;;;;14.15;76.35;99922.59;4951622;28;20192;-58
2022/04/12 08:13:47;;;;;;;3.40;3.03;;;;;;;14.29;76.52;99916.94;4945287;28;20231;-57
2022/04/12 08:16:15;;;;;;;4.17;3.07;;;;;;;14.23;74.65;99913.69;4943110;28;20244;-57
2022/04/12 08:18:42;;;;;;;3.40;2.73;;;;;;;14.39;75.34;99906.28;4944338;28;20286;-57
2022/04/12 08:21:08;;;;;;;3.40;2.97;;;;;;;14.61;74.90;99912.50;4944116;28;20213;-58
2022/04/12 08:23:33;;;;;;;3.17;2.83;;;;;;;14.62;74.82;99914.22;4943110;28;20705;-58
2022/04/12 08:25:58;;;;;;;2.70;2.50;;;;;;;14.69;74.59;99916.66;4943103;28;20202;-58
2022/04/12 08:28:24;;;;;;;3.10;2.60;;;;;;;14.81;74.50;99911.06;4944420;28;20643;-58
2022/04/12 08:30:49;;;;;;;3.83;2.30;;;;;;;15.01;73.60;99912.16;4944260;28;20644;-58
2022/04/12 08:33:14;;;;;;;3.27;2.53;;;;;;;15.04;72.75;99906.84;4948761;28;20305;-57
2022/04/12 08:35:40;;;;;;;4.03;2.43;;;;;;;15.12;72.44;99907.44;4949599;28;20205;-58
2022/04/12 08:38:06;;;;;;;3.17;2.50;;;;;;;15.26;71.13;99903.50;4941166;28;20196;-57
2022/04/12 08:40:31;;;;;;;2.80;2.50;;;;;;;15.29;71.78;99913.81;4944413;28;20245;-57
2022/04/12 08:42:59;;;;;;;2.30;2.10;;;;;;;15.47;72.05;99912.31;4952981;28;20586;-59
2022/04/12 08:45:25;;;;;;;4.20;2.10;;;;;;;15.64;72.11;99907.34;4955678;28;20198;-56
2022/04/12 08:47:51;;;;;;;2.73;2.50;;;;;;;15.89;72.24;99911.69;4942876;28;20190;-57
2022/04/12 08:50:19;;;;;;;3.10;2.80;;;;;;;16.11;72.53;99919.56;4945804;28;20225;-58
2022/04/12 08:52:46;;;;;;;3.33;3.00;;;;;;;16.35;72.57;99914.34;4944372;28;20212;-57
2022/04/12 08:55:11;;;;;;;2.97;2.77;;;;;;;16.60;72.68;99921.19;4951695;28;20198;-57
2022/04/12 08:57:37;;;;;;;3.33;3.03;;;;;;;16.86;71.04;99917.53;4945885;28;20210;-57
2022/04/12 09:00:05;;;;;;;5.17;3.50;;;;;;;16.97;68.98;99904.06;4947742;28;20193;-57
2022/04/12 09:02:31;;;;;;;5.00;3.20;;;;;;;16.94;69.61;99906.75;4951119;28;20257;-57
2022/04/12 09:04:59;;;;;;;3.80;2.87;;;;;;;17.01;70.20;99902.16;4948433;28;20220;-57
2022/04/12 09:07:26;;;;;;;3.23;2.80;;;;;;;17.03;69.16;99903.78;4955943;28;20194;-57
2022/04/12 09:09:52;;;;;;;3.40;3.10;;;;;;;17.09;68.22;99900.09;4954296;28;20196;-57
2022/04/12 09:12:18;;;;;;;3.53;3.23;;;;;;;17.02;67.87;99899.47;4947250;28;20222;-57
2022/04/12 09:14:56;;;;;;;3.63;3.00;;;;;;;17.05;68.74;99898.50;4952217;28;20254;-58
2022/04/12 09:17:30;;;;;;;3.93;3.17;;;;;;;17.11;68.17;99890.38;4941190;28;20298;-57
2022/04/12 09:19:56;;;;;;;4.67;3.30;;;;;;;17.15;67.72;99889.34;4949693;28;20203;-57
2022/04/12 09:22:24;;;;;;;3.60;3.10;;;;;;;17.08;67.99;99900.13;4943439;28;20220;-57
2022/04/12 09:24:55;;;;;;;5.40;3.20;;;;;;;17.11;68.70;99898.22;4952221;28;20187;-58
2022/04/12 09:27:26;;;;;;;4.30;2.87;;;;;;;17.24;68.89;99895.13;4947235;28;20195;-58
2022/04/12 09:29:53;;;;;;;3.57;3.20;;;;;;;17.37;69.26;99891.03;4945510;28;20200;-57
2022/04/12 09:32:23;;;;;;;3.80;2.83;;;;;;;17.51;69.95;99893.91;4950959;28;20685;-56
2022/04/12 09:34:50;;;;;;;3.67;2.47;;;;;;;17.63;70.00;99892.47;4942296;28;20193;-57
2022/04/12 09:37:27;;;;;;;3.47;3.17;;;;;;;17.77;69.87;99891.03;4939565;28;20194;-57
2022/04/12 09:39:58;;;;;;;3.30;2.90;;;;;;;17.77;70.24;99883.19;4955271;28;20699;-58
2022/04/12 09:42:55;;;;;;;3.30;3.00;;;;;;;17.81;70.49;99885.59;4947701;28;20224;-57
2022/04/12 09:45:26;;;;;;;4.40;2.83;;;;;;;17.81;70.86;99880.34;4953801;28;20654;-57
2022/04/12 09:47:55;;;;;;;3.60;3.00;;;;;;;17.80;70.20;99877.78;4945144;28;20240;-57
2022/04/12 09:50:25;;;;;;;3.97;2.87;;;;;;;17.80;70.74;99880.41;4948388;28;20194;-58
2022/04/12 09:53:00;;;;;;;3.53;3.03;;;;;;;17.81;70.88;99880.34;4951566;28;20584;-57
2022/04/12 09:55:34;;;;;;;5.50;3.20;;;;;;;17.76;71.05;99884.09;4945278;28;20263;-57
2022/04/12 09:58:01;;;;;;;3.33;3.03;;;;;;;17.74;71.33;99880.72;4944854;28;20239;-57
2022/04/12 10:00:30;;;;;;;3.23;2.83;;;;;;;17.68;71.70;99881.84;4945012;28;20653;-57
2022/04/12 10:02:58;;;;;;;4.30;2.93;;;;;;;17.62;71.95;99880.31;4946189;28;20229;-57
2022/04/12 10:05:25;;;;;;;2.53;2.13;;;;;;;17.66;72.20;99862.75;4946070;28;20215;-57
2022/04/12 10:07:51;;;;;;;3.30;2.70;;;;;;;17.67;72.39;99859.22;4948490;28;20820;-57
2022/04/12 10:10:19;;;;;;;3.57;2.73;;;;;;;17.66;72.60;99860.97;4949390;28;20203;-57
2022/04/12 10:12:46;;;;;;;2.30;2.10;;;;;;;17.68;71.97;99843.41;4943133;28;20293;-58
2022/04/12 10:15:12;;;;;;;4.83;2.90;;;;;;;17.55;71.33;99839.66;4950356;28;20201;-57
2022/04/12 10:17:39;;;;;;;3.90;2.90;;;;;;;17.55;71.33;99839.66;4946296;28;20192;-57
2022/04/12 10:20:06;;;;;;;2.97;2.73;;;;;;;17.55;71.31;99830.94;4946692;28;20202;-57
2022/04/12 10:22:33;;;;;;;3.70;3.30;;;;;;;17.51;70.77;99823.28;4941694;28;20235;-57
2022/04/12 10:25:01;;;;;;;3.97;2.97;;;;;;;17.50;70.97;99818.09;4947741;28;20207;-57
2022/04/12 10:27:28;;;;;;;4.27;3.20;;;;;;;17.56;71.50;99819.56;4951210;28;20561;-57
2022/04/12 10:30:26;;;;;;;2.70;2.30;;;;;;;17.64;71.50;99810.47;4946464;28;20665;-57
2022/04/12 10:33:03;;;;;;;3.27;2.67;;;;;;;17.67;71.55;99805.09;4959987;28;20221;-58
2022/04/12 10:35:29;;;;;;;3.40;2.70;;;;;;;17.74;71.17;99807.44;4946168;28;20194;-57
2022/04/12 10:37:58;;;;;;;2.80;2.57;;;;;;;17.77;71.23;99800.28;4946644;28;20195;-57
2022/04/12 10:40:26;;;;;;;3.67;2.67;;;;;;;17.92;71.19;99803.09;4947513;28;20293;-57
2022/04/12 10:42:53;;;;;;;3.87;2.60;;;;;;;18.09;71.93;99794.44;4953155;28;20217;-57
2022/04/12 10:45:29;;;;;;;3.87;3.00;;;;;;;18.25;71.81;99794.56;4943203;28;20190;-57
2022/04/12 10:48:00;;;;;;;4.23;3.13;;;;;;;18.39;71.61;99799.13;4946537;28;20200;-58
2022/04/12 10:50:25;;;;;;;3.20;2.90;;;;;;;18.45;71.52;99793.59;4946313;28;20224;-59
2022/04/12 10:52:51;;;;;;;3.27;2.50;;;;;;;18.56;71.64;99791.28;4945327;28;20250;-57
2022/04/12 10:55:25;;;;;;;2.83;2.20;;;;;;;18.70;71.41;99792.34;4944553;28;20284;-57
2022/04/12 10:57:52;;;;;;;3.87;2.17;;;;;;;18.83;71.69;99784.72;4945400;28;20236;-57
2022/04/12 11:00:22;;;;;;;2.43;2.23;;;;;;;18.92;71.35;99783.38;4949678;28;20252;-58
2022/04/12 11:02:58;;;;;;;2.43;2.10;;;;;;;18.98;70.77;99775.25;4941594;28;20220;-58
2022/04/12 11:05:36;;;;;;;2.60;2.13;;;;;;;19.06;70.74;99764.34;4946524;28;20289;-59
2022/04/12 11:08:33;;;;;;;4.00;2.30;;;;;;;19.21;71.22;99771.38;4952164;28;20236;-58
2022/04/12 11:10:58;;;;;;;2.50;2.20;;;;;;;19.39;71.07;99766.09;4959033;28;20220;-57
2022/04/12 11:13:28;;;;;;;2.87;2.10;;;;;;;19.49;71.40;99770.75;4945732;28;20257;-57
2022/04/12 11:15:55;;;;;;;3.87;2.03;;;;;;;19.62;71.32;99764.81;4949232;28;20297;-58
2022/04/12 11:18:20;;;;;;;3.67;2.37;;;;;;;19.75;70.76;99765.00;4943028;28;20510;-57
2022/04/12 11:20:59;;;;;;;3.63;2.10;;;;;;;19.77;70.42;99761.34;4949717;28;20191;-58
2022/04/12 11:23:46;;;;;;;2.97;2.00;;;;;;;19.86;70.18;99761.78;4944196;28;20245;-58
2022/04/12 11:26:38;;;;;;;5.43;2.33;;;;;;;19.98;70.00;99755.00;4947496;28;20247;-57
2022/04/12 11:29:08;;;;;;;3.67;2.27;;;;;;;20.09;69.91;99745.59;4942705;28;20655;-57
2022/04/12 11:31:48;;;;;;;2.23;1.90;;;;;;;20.12;69.32;99747.19;4947259;28;20224;-59
2022/04/12 11:34:14;;;;;;;2.97;2.13;;;;;;;20.16;68.81;99745.25;4943534;28;20237;-58
2022/04/12 11:36:44;;;;;;;2.97;2.10;;;;;;;20.35;65.45;99743.22;4941447;28;20195;-57